createdAt,value
2023-01-11T00:01:50.995Z,1.40
2023-01-11T00:04:18.949Z,2.23
2023-01-11T00:06:46.801Z,1.80
2023-01-11T00:09:14.073Z,1.77
2023-01-11T00:11:41.145Z,1.70
2023-01-11T00:14:08.160Z,1.95
2023-01-11T00:16:35.191Z,2.23
2023-01-11T00:19:02.419Z,2.27
2023-01-11T00:21:29.486Z,1.90
2023-01-11T00:23:56.491Z,1.70
2023-01-11T00:26:23.916Z,1.63
2023-01-11T00:28:52.576Z,1.60
2023-01-11T00:31:20.003Z,2.07
2023-01-11T00:33:47.104Z,1.77
2023-01-11T00:36:14.183Z,1.70
2023-01-11T00:38:43.822Z,1.93
2023-01-11T00:41:31.027Z,1.43
2023-01-11T00:44:17.302Z,1.47
2023-01-11T00:47:03.339Z,1.90
2023-01-11T00:49:30.800Z,1.73
2023-01-11T00:51:58.018Z,1.50
2023-01-11T00:54:25.430Z,1.60
2023-01-11T00:56:52.816Z,1.47
2023-01-11T00:59:20.250Z,1.90
2023-01-11T01:01:47.654Z,1.23
2023-01-11T01:04:15.245Z,1.60
2023-01-11T01:06:42.691Z,2.13
2023-01-11T01:09:10.185Z,1.80
2023-01-11T01:11:37.605Z,1.63
2023-01-11T01:14:23.833Z,2.00
2023-01-11T01:16:52.120Z,1.70
2023-01-11T01:19:19.894Z,2.20
2023-01-11T01:21:47.371Z,1.70
2023-01-11T01:24:14.730Z,1.73
2023-01-11T01:26:42.289Z,1.73
2023-01-11T01:29:09.713Z,1.90
2023-01-11T01:31:37.182Z,1.60
2023-01-11T01:34:04.556Z,1.53
2023-01-11T01:36:31.969Z,1.27
2023-01-11T01:39:02.177Z,1.93
2023-01-11T01:41:29.684Z,1.97
2023-01-11T01:43:58.459Z,1.67
2023-01-11T01:46:29.864Z,1.77
2023-01-11T01:49:12.544Z,1.90
2023-01-11T01:51:52.240Z,2.37
2023-01-11T01:54:22.026Z,2.10
2023-01-11T01:56:54.519Z,1.90
2023-01-11T01:59:22.691Z,1.63
2023-01-11T02:01:50.598Z,1.70
2023-01-11T02:04:21.011Z,1.33
2023-01-11T02:06:49.030Z,1.83
2023-01-11T02:09:38.566Z,1.47
2023-01-11T02:12:06.719Z,1.77
2023-01-11T02:14:35.583Z,1.60
2023-01-11T02:17:03.008Z,1.80
2023-01-11T02:19:44.631Z,1.43
2023-01-11T02:22:28.654Z,1.80
2023-01-11T02:25:16.318Z,1.80
2023-01-11T02:28:07.631Z,2.00
2023-01-11T02:31:16.174Z,1.88
2023-01-11T02:34:51.323Z,2.00
2023-01-11T02:37:50.340Z,1.73
2023-01-11T02:40:51.151Z,1.53
2023-01-11T02:44:04.754Z,1.60
2023-01-11T02:46:44.752Z,1.67
2023-01-11T02:49:32.389Z,1.60
2023-01-11T02:52:09.811Z,2.00
2023-01-11T02:54:38.120Z,1.90
2023-01-11T02:57:06.534Z,1.70
2023-01-11T02:59:35.478Z,1.57
2023-01-11T03:02:02.943Z,1.83
2023-01-11T03:04:31.818Z,1.53
2023-01-11T03:07:18.172Z,1.70
2023-01-11T03:09:52.316Z,1.70
2023-01-11T03:12:52.082Z,1.70
2023-01-11T03:15:38.657Z,1.50
2023-01-11T03:18:21.881Z,1.90
2023-01-11T03:21:01.703Z,2.00
2023-01-11T03:23:35.199Z,1.43
2023-01-11T03:26:22.855Z,2.10
2023-01-11T03:28:58.928Z,1.90
2023-01-11T03:31:31.315Z,1.60
2023-01-11T03:34:10.377Z,1.73
2023-01-11T03:36:53.815Z,1.50
2023-01-11T03:39:28.011Z,1.50
2023-01-11T03:41:57.392Z,2.13
2023-01-11T03:44:26.249Z,1.60
2023-01-11T03:47:02.059Z,1.73
2023-01-11T03:49:34.449Z,1.67
2023-01-11T03:52:03.337Z,1.67
2023-01-11T03:54:31.413Z,1.70
2023-01-11T03:57:06.023Z,1.27
2023-01-11T03:59:34.132Z,1.40
2023-01-11T04:02:01.896Z,1.80
2023-01-11T04:04:29.416Z,1.80
2023-01-11T04:06:57.241Z,1.83
2023-01-11T04:09:24.679Z,1.37
2023-01-11T04:11:52.044Z,1.20
2023-01-11T04:14:19.513Z,1.67
2023-01-11T04:16:46.889Z,2.03
2023-01-11T04:19:14.338Z,1.40
2023-01-11T04:21:41.721Z,1.43
2023-01-11T04:24:09.190Z,1.50
2023-01-11T04:26:36.594Z,1.50
2023-01-11T04:29:04.097Z,1.63
2023-01-11T04:31:31.701Z,1.63
2023-01-11T04:33:59.152Z,1.50
2023-01-11T04:36:26.629Z,1.40
2023-01-11T04:38:54.042Z,1.40
2023-01-11T04:41:40.011Z,1.50
2023-01-11T04:44:07.568Z,1.30
2023-01-11T04:46:34.976Z,1.40
2023-01-11T04:49:02.788Z,1.60
2023-01-11T04:51:30.154Z,1.43
2023-01-11T04:53:57.744Z,1.30
2023-01-11T04:56:25.227Z,1.47
2023-01-11T04:58:52.646Z,1.40
2023-01-11T05:01:20.315Z,1.27
2023-01-11T05:03:47.912Z,1.70
2023-01-11T05:06:15.505Z,1.53
2023-01-11T05:08:46.355Z,1.27
2023-01-11T05:11:14.018Z,1.53
2023-01-11T05:13:44.368Z,1.40
2023-01-11T05:16:21.930Z,1.50
2023-01-11T05:18:51.094Z,1.60
2023-01-11T05:21:19.767Z,1.17
2023-01-11T05:23:47.304Z,1.63
2023-01-11T05:26:17.617Z,1.70
2023-01-11T05:28:45.341Z,1.67
2023-01-11T05:31:13.357Z,1.70
2023-01-11T05:33:40.969Z,1.80
2023-01-11T05:36:09.636Z,2.10
2023-01-11T05:38:37.170Z,1.97
2023-01-11T05:41:05.771Z,1.70
2023-01-11T05:43:34.092Z,1.70
2023-01-11T05:46:02.238Z,1.70
2023-01-11T05:48:29.709Z,1.77
2023-01-11T05:50:57.361Z,1.60
2023-01-11T05:53:25.231Z,1.67
2023-01-11T05:55:56.478Z,1.73
2023-01-11T05:58:25.540Z,1.50
2023-01-11T06:00:54.742Z,2.50
2023-01-11T06:03:22.985Z,1.70
2023-01-11T06:05:50.777Z,1.57
2023-01-11T06:08:18.416Z,2.03
2023-01-11T06:10:51.518Z,1.40
2023-01-11T06:13:28.329Z,1.70
2023-01-11T06:16:09.115Z,1.70
2023-01-11T06:18:37.765Z,1.23
2023-01-11T06:21:05.930Z,1.50
2023-01-11T06:23:34.616Z,1.43
2023-01-11T06:26:03.067Z,1.70
2023-01-11T06:28:30.549Z,2.00
2023-01-11T06:30:58.598Z,1.50
2023-01-11T06:33:26.768Z,1.50
2023-01-11T06:35:54.579Z,1.50
2023-01-11T06:38:22.893Z,2.13
2023-01-11T06:40:54.416Z,1.70
2023-01-11T06:43:22.519Z,1.70
2023-01-11T06:45:50.119Z,1.67
2023-01-11T06:48:17.923Z,1.50
2023-01-11T06:50:48.832Z,1.67
2023-01-11T06:53:16.506Z,1.40
2023-01-11T06:55:44.062Z,1.80
2023-01-11T06:58:11.881Z,1.60
2023-01-11T07:00:39.476Z,1.43
2023-01-11T07:03:07.347Z,2.23
2023-01-11T07:05:35.887Z,1.50
2023-01-11T07:08:03.784Z,1.70
2023-01-11T07:10:31.337Z,1.60
2023-01-11T07:12:59.120Z,1.57
2023-01-11T07:15:26.562Z,1.73
2023-01-11T07:17:57.466Z,1.93
2023-01-11T07:20:25.758Z,2.00
2023-01-11T07:22:56.329Z,2.27
2023-01-11T07:25:23.670Z,1.60
2023-01-11T07:27:59.940Z,1.77
2023-01-11T07:30:28.672Z,2.03
2023-01-11T07:32:57.791Z,2.00
2023-01-11T07:35:26.454Z,2.20
2023-01-11T07:37:55.173Z,2.50
2023-01-11T07:40:22.392Z,1.80
2023-01-11T07:43:23.894Z,1.80
2023-01-11T07:45:53.011Z,1.80
2023-01-11T07:48:24.861Z,2.07
2023-01-11T07:50:52.982Z,2.10
2023-01-11T07:53:20.165Z,1.83
2023-01-11T07:55:47.458Z,1.93
2023-01-11T07:58:15.897Z,2.40
2023-01-11T08:00:43.662Z,2.00
2023-01-11T08:03:11.254Z,2.03
2023-01-11T08:05:39.208Z,2.03
2023-01-11T08:08:07.038Z,1.80
2023-01-11T08:10:34.967Z,2.10
2023-01-11T08:13:21.141Z,2.07
2023-01-11T08:15:48.427Z,2.10
2023-01-11T08:18:17.268Z,2.10
2023-01-11T08:20:45.848Z,1.60
2023-01-11T08:23:13.637Z,1.90
2023-01-11T08:25:40.703Z,1.83
2023-01-11T08:28:08.192Z,2.10
2023-01-11T08:30:36.525Z,2.00
2023-01-11T08:33:05.018Z,1.97
2023-01-11T08:35:37.231Z,1.90
2023-01-11T08:38:04.731Z,1.70
2023-01-11T08:40:31.858Z,2.63
2023-01-11T08:42:59.719Z,2.07
2023-01-11T08:45:26.924Z,2.10
2023-01-11T08:47:54.992Z,2.00
2023-01-11T08:50:23.063Z,1.73
2023-01-11T08:52:51.952Z,1.63
2023-01-11T08:55:19.943Z,2.00
2023-01-11T08:57:47.975Z,2.20
2023-01-11T09:00:16.074Z,1.80
2023-01-11T09:02:47.643Z,1.80
2023-01-11T09:05:16.848Z,2.20
2023-01-11T09:07:45.731Z,1.83
2023-01-11T09:10:13.173Z,2.20
2023-01-11T09:12:40.710Z,1.80
2023-01-11T09:15:09.752Z,1.57
2023-01-11T09:17:37.366Z,1.70
2023-01-11T09:20:05.102Z,1.90
2023-01-11T09:22:33.757Z,1.77
2023-01-11T09:25:01.201Z,1.70
2023-01-11T09:27:28.427Z,1.47
2023-01-11T09:29:55.515Z,1.77
2023-01-11T09:32:22.821Z,1.97
2023-01-11T09:34:53.475Z,1.80
2023-01-11T09:37:22.714Z,2.00
2023-01-11T09:39:51.547Z,1.80
2023-01-11T09:42:39.786Z,1.70
2023-01-11T09:45:18.715Z,1.60
2023-01-11T09:47:49.568Z,1.57
2023-01-11T09:50:39.997Z,1.80
2023-01-11T09:53:09.821Z,1.60
2023-01-11T09:55:44.789Z,1.70
2023-01-11T09:58:36.191Z,2.03
2023-01-11T10:01:30.071Z,1.50
2023-01-11T10:04:38.967Z,1.40
2023-01-11T10:07:23.102Z,1.50
2023-01-11T10:18:42.845Z,1.47
2023-01-11T10:19:31.532Z,2.20
2023-01-11T10:22:13.079Z,1.50
2023-01-11T10:24:43.137Z,1.63
2023-01-11T10:27:18.028Z,1.30
2023-01-11T10:29:57.926Z,1.77
2023-01-11T10:33:06.688Z,2.10
2023-01-11T10:35:45.916Z,1.87
2023-01-11T10:38:43.727Z,1.53
2023-01-11T10:41:26.006Z,1.97
2023-01-11T10:44:00.340Z,2.00
2023-01-11T10:46:27.902Z,1.80
2023-01-11T10:49:04.452Z,1.50
2023-01-11T10:51:40.219Z,1.30
2023-01-11T10:54:27.130Z,1.33
2023-01-11T10:57:22.900Z,1.80
2023-01-11T11:00:19.890Z,1.37
2023-01-11T11:03:03.258Z,1.70
2023-01-11T11:05:47.586Z,1.37
2023-01-11T11:08:38.301Z,1.73
2023-01-11T11:11:14.559Z,1.40
2023-01-11T11:13:57.226Z,1.90
2023-01-11T11:16:45.169Z,2.00
2023-01-11T11:19:16.012Z,1.40
2023-01-11T11:21:43.542Z,1.70
2023-01-11T11:24:34.188Z,2.07
2023-01-11T11:27:20.126Z,1.50
2023-01-11T11:29:52.397Z,1.77
2023-01-11T11:32:25.284Z,1.80
2023-01-11T11:34:53.414Z,1.60
2023-01-11T11:37:22.787Z,1.80
2023-01-11T11:39:51.330Z,1.73
2023-01-11T11:42:21.291Z,1.80
2023-01-11T11:45:07.632Z,1.80
2023-01-11T11:47:35.329Z,1.93
2023-01-11T11:50:43.689Z,1.90
2023-01-11T11:53:14.802Z,1.57
2023-01-11T11:55:42.586Z,1.60
2023-01-11T11:58:13.428Z,1.70
2023-01-11T12:00:48.595Z,1.67
2023-01-11T12:03:32.350Z,1.50
2023-01-11T12:06:07.699Z,1.98
2023-01-11T12:08:36.635Z,1.70
2023-01-11T12:11:08.504Z,1.57
2023-01-11T12:13:37.809Z,1.83
2023-01-11T12:16:07.502Z,1.80
2023-01-11T12:18:43.048Z,1.60
2023-01-11T12:21:16.679Z,1.83
2023-01-11T12:23:44.458Z,1.70
2023-01-11T12:26:21.757Z,2.60
2023-01-11T12:29:01.105Z,1.80
2023-01-11T12:31:34.417Z,2.40
2023-01-11T12:34:16.807Z,2.10
2023-01-11T12:37:09.504Z,2.00
2023-01-11T12:39:57.193Z,1.63
2023-01-11T12:42:59.956Z,2.23
2023-01-11T12:45:50.992Z,1.90
2023-01-11T12:48:44.948Z,1.80
2023-01-11T12:51:23.223Z,2.50
2023-01-11T12:54:13.738Z,2.10
2023-01-11T12:57:01.179Z,2.03
2023-01-11T12:59:53.261Z,2.03
2023-01-11T13:02:41.069Z,2.13
2023-01-11T13:05:27.504Z,2.43
2023-01-11T13:08:22.558Z,2.20
2023-01-11T13:11:37.659Z,2.07
2023-01-11T13:17:01.572Z,2.10
2023-01-11T13:19:33.190Z,2.37
2023-01-11T13:22:04.776Z,2.50
2023-01-11T13:24:33.478Z,2.30
2023-01-11T13:27:02.457Z,2.20
2023-01-11T13:29:32.538Z,2.13
2023-01-11T13:32:03.947Z,2.43
2023-01-11T13:34:37.151Z,2.27
2023-01-11T13:37:08.632Z,2.77
2023-01-11T13:39:41.112Z,2.53
2023-01-11T13:42:28.910Z,2.37
2023-01-11T13:45:02.603Z,2.30
2023-01-11T13:47:43.024Z,2.37
2023-01-11T13:50:14.050Z,2.47
2023-01-11T13:52:45.097Z,2.57
2023-01-11T13:55:31.387Z,2.67
2023-01-11T13:58:17.405Z,2.43
2023-01-11T14:00:46.700Z,2.10
2023-01-11T14:03:34.479Z,2.00
2023-01-11T14:06:22.219Z,2.03
2023-01-11T14:09:08.632Z,2.17
2023-01-11T14:11:51.761Z,2.10
2023-01-11T14:14:39.513Z,2.03
2023-01-11T14:17:22.651Z,2.50
2023-01-11T14:20:12.117Z,2.57
2023-01-11T14:23:02.558Z,2.20
2023-01-11T14:25:39.060Z,2.27
2023-01-11T14:28:25.337Z,1.70
2023-01-11T14:31:08.520Z,2.10
2023-01-11T14:34:11.262Z,2.07
2023-01-11T14:37:07.873Z,2.17
2023-01-11T14:39:55.674Z,2.30
2023-01-11T14:42:41.879Z,2.43
2023-01-11T14:45:19.133Z,2.53
2023-01-11T14:48:02.070Z,2.23
2023-01-11T14:50:50.136Z,2.30
2023-01-11T14:53:22.390Z,2.57
2023-01-11T14:55:50.032Z,2.40
2023-01-11T14:58:25.290Z,2.10
2023-01-11T15:01:11.675Z,2.30
2023-01-11T15:03:43.183Z,2.40
2023-01-11T15:06:18.932Z,2.43
2023-01-11T15:08:54.458Z,2.63
2023-01-11T15:11:23.765Z,2.50
2023-01-11T15:13:58.281Z,2.47
2023-01-11T15:16:49.399Z,2.33
2023-01-11T15:19:28.478Z,2.30
2023-01-11T15:21:57.037Z,2.50
2023-01-11T15:24:26.710Z,2.47
2023-01-11T15:26:54.693Z,3.07
2023-01-11T15:29:42.390Z,3.20
2023-01-11T15:32:25.339Z,2.90
2023-01-11T15:34:53.089Z,3.30
2023-01-11T15:37:39.449Z,2.90
2023-01-11T15:40:27.397Z,2.90
2023-01-11T15:43:24.449Z,3.20
2023-01-11T15:46:37.367Z,3.17
2023-01-11T15:49:30.756Z,3.40
2023-01-11T15:52:09.251Z,3.50
2023-01-11T15:55:05.903Z,3.40
2023-01-11T15:57:53.561Z,3.20
2023-01-11T16:00:41.357Z,3.27
2023-01-11T16:03:27.248Z,3.47
2023-01-11T16:06:03.545Z,3.10
2023-01-11T16:08:36.860Z,2.90
2023-01-11T16:11:24.558Z,3.67
2023-01-11T16:14:17.732Z,3.20
2023-01-11T16:16:45.821Z,3.60
2023-01-11T16:19:20.005Z,3.50
2023-01-11T16:21:49.829Z,3.57
2023-01-11T16:24:20.616Z,3.57
2023-01-11T16:26:54.136Z,3.73
2023-01-11T16:29:26.676Z,4.03
2023-01-11T16:31:59.590Z,3.73
2023-01-11T16:34:28.952Z,4.17
2023-01-11T16:36:57.774Z,4.60
2023-01-11T16:39:29.878Z,3.73
2023-01-11T16:42:06.037Z,3.70
2023-01-11T16:44:52.065Z,3.93
2023-01-11T16:47:20.348Z,4.40
2023-01-11T16:50:01.810Z,4.27
2023-01-11T16:52:38.150Z,3.23
2023-01-11T16:55:14.939Z,3.67
2023-01-11T16:57:44.200Z,3.77
2023-01-11T17:00:22.144Z,2.30
2023-01-11T17:02:51.545Z,3.00
2023-01-11T17:05:20.016Z,3.13
2023-01-11T17:07:47.781Z,3.67
2023-01-11T17:10:16.511Z,3.50
2023-01-11T17:12:45.835Z,3.67
2023-01-11T17:15:27.177Z,3.77
2023-01-11T17:17:54.781Z,4.40
2023-01-11T17:20:28.616Z,3.70
2023-01-11T17:22:57.281Z,4.43
2023-01-11T17:25:37.254Z,4.87
2023-01-11T17:28:17.082Z,4.50
2023-01-11T17:30:49.089Z,4.27
2023-01-11T17:33:27.475Z,4.63
2023-01-11T17:35:55.615Z,4.50
2023-01-11T17:38:25.078Z,4.80
2023-01-11T17:40:53.201Z,5.23
2023-01-11T17:43:41.009Z,4.90
2023-01-11T17:46:08.789Z,5.17
2023-01-11T17:48:36.308Z,5.40
2023-01-11T17:51:04.737Z,4.60
2023-01-11T17:53:33.984Z,5.17
2023-01-11T17:56:05.412Z,5.53
2023-01-11T17:58:36.152Z,4.13
2023-01-11T18:01:21.680Z,4.83
2023-01-11T18:03:59.250Z,4.50
2023-01-11T18:06:37.178Z,4.97
2023-01-11T18:09:06.291Z,5.27
2023-01-11T18:11:40.374Z,5.20
2023-01-11T18:14:40.112Z,5.23
2023-01-11T18:17:25.047Z,5.10
2023-01-11T18:19:52.549Z,5.50
2023-01-11T18:22:47.309Z,4.37
2023-01-11T18:25:24.698Z,4.70
2023-01-11T18:27:52.987Z,4.80
2023-01-11T18:30:37.678Z,4.20
2023-01-11T18:33:11.348Z,5.53
2023-01-11T18:35:45.514Z,5.03
2023-01-11T18:38:16.504Z,4.57
2023-01-11T18:40:44.647Z,4.40
2023-01-11T18:43:13.567Z,5.00
2023-01-11T18:45:45.073Z,4.30
2023-01-11T18:48:13.269Z,4.50
2023-01-11T18:50:41.775Z,4.50
2023-01-11T18:53:12.987Z,4.27
2023-01-11T18:55:40.537Z,4.60
2023-01-11T18:58:09.848Z,3.57
2023-01-11T19:00:37.745Z,3.43
2023-01-11T19:03:06.168Z,3.07
2023-01-11T19:05:33.761Z,2.73
2023-01-11T19:08:01.249Z,2.80
2023-01-11T19:10:28.999Z,2.70
2023-01-11T19:12:57.905Z,2.80
2023-01-11T19:15:25.545Z,2.93
2023-01-11T19:17:53.060Z,3.20
2023-01-11T19:20:20.571Z,3.00
2023-01-11T19:22:48.034Z,2.73
2023-01-11T19:25:15.596Z,2.77
2023-01-11T19:27:43.050Z,2.80
2023-01-11T19:30:12.134Z,2.77
2023-01-11T19:32:39.597Z,2.47
2023-01-11T19:35:08.396Z,2.70
2023-01-11T19:37:37.514Z,3.23
2023-01-11T19:40:05.920Z,2.73
2023-01-11T19:42:33.445Z,3.00
2023-01-11T19:45:00.898Z,2.50
2023-01-11T19:47:28.407Z,2.57
2023-01-11T19:49:59.056Z,2.57
2023-01-11T19:52:26.699Z,2.50
2023-01-11T19:54:55.167Z,2.50
2023-01-11T19:57:22.757Z,2.00
2023-01-11T19:59:50.751Z,2.13
2023-01-11T20:02:19.831Z,2.33
2023-01-11T20:04:47.537Z,2.60
2023-01-11T20:07:15.786Z,2.30
2023-01-11T20:09:43.266Z,2.83
2023-01-11T20:12:11.695Z,2.70
2023-01-11T20:14:40.733Z,2.97
2023-01-11T20:17:08.847Z,1.93
2023-01-11T20:19:36.383Z,2.47
2023-01-11T20:22:03.987Z,3.27
2023-01-11T20:24:31.580Z,3.20
2023-01-11T20:27:00.351Z,3.30
2023-01-11T20:29:27.827Z,3.53
2023-01-11T20:31:55.831Z,3.83
2023-01-11T20:34:24.180Z,5.17
2023-01-11T20:36:51.706Z,4.00
2023-01-11T20:39:19.211Z,4.00
2023-01-11T20:41:51.050Z,4.07
2023-01-11T20:44:20.121Z,4.93
2023-01-11T20:46:48.463Z,4.00
2023-01-11T20:49:16.295Z,3.87
2023-01-11T20:51:44.108Z,4.93
2023-01-11T20:54:11.904Z,4.73
2023-01-11T20:56:39.764Z,4.60
2023-01-11T20:59:08.105Z,4.30
2023-01-11T21:01:36.015Z,5.00
2023-01-11T21:04:07.798Z,2.60
2023-01-11T21:06:37.006Z,2.70
2023-01-11T21:09:04.828Z,3.53
2023-01-11T21:11:32.488Z,2.30
2023-01-11T21:14:00.988Z,2.33
2023-01-11T21:16:29.551Z,1.70
2023-01-11T21:21:59.864Z,1.98
2023-01-11T21:24:27.034Z,1.90
2023-01-11T21:26:54.127Z,1.60
2023-01-11T21:29:21.428Z,2.17
2023-01-11T21:31:49.437Z,1.63
2023-01-11T21:34:16.585Z,1.57
2023-01-11T21:36:44.158Z,1.60
2023-01-11T21:39:14.070Z,1.67
2023-01-11T21:41:56.470Z,1.60
2023-01-11T21:44:34.426Z,1.40
2023-01-11T21:47:05.996Z,1.90
2023-01-11T21:49:33.728Z,2.03
2023-01-11T21:52:00.874Z,1.87
2023-01-11T21:54:28.039Z,1.80
2023-01-11T21:56:55.195Z,2.17
2023-01-11T21:59:22.640Z,2.33
2023-01-11T22:01:49.791Z,1.43
2023-01-11T22:04:19.033Z,2.53
2023-01-11T22:06:51.245Z,2.40
2023-01-11T22:09:19.620Z,2.67
2023-01-11T22:11:47.092Z,2.67
2023-01-11T22:14:14.402Z,2.90
2023-01-11T22:16:41.561Z,3.20
2023-01-11T22:19:08.964Z,2.63
2023-01-11T22:21:37.775Z,3.47
2023-01-11T22:24:06.136Z,2.97
2023-01-11T22:26:37.714Z,2.90
2023-01-11T22:29:12.928Z,2.33
2023-01-11T22:32:01.978Z,2.93
2023-01-11T22:34:29.374Z,2.60
2023-01-11T22:36:57.010Z,2.77
2023-01-11T22:39:24.873Z,2.17
2023-01-11T22:41:52.076Z,2.90
2023-01-11T22:44:19.691Z,2.57
2023-01-11T22:46:47.259Z,2.33
2023-01-11T22:49:14.967Z,2.20
2023-01-11T22:51:43.259Z,2.50
2023-01-11T22:54:11.250Z,2.23
2023-01-11T22:56:38.366Z,2.30
2023-01-11T22:59:05.746Z,2.67
2023-01-11T23:01:40.931Z,2.60
2023-01-11T23:04:11.276Z,2.80
2023-01-11T23:06:40.541Z,2.83
2023-01-11T23:09:09.678Z,2.70
2023-01-11T23:11:56.740Z,2.30
2023-01-11T23:14:29.341Z,2.47
2023-01-11T23:17:00.204Z,2.40
2023-01-11T23:19:27.403Z,2.60
2023-01-11T23:21:54.885Z,2.90
2023-01-11T23:24:22.273Z,3.00
2023-01-11T23:26:49.605Z,3.57
2023-01-11T23:29:16.824Z,2.83
2023-01-11T23:31:43.962Z,3.27
2023-01-11T23:34:11.936Z,3.63
2023-01-11T23:36:41.189Z,3.80
2023-01-11T23:39:12.945Z,4.73
2023-01-11T23:41:58.805Z,5.03
2023-01-11T23:44:25.971Z,3.93
2023-01-11T23:47:11.358Z,4.43
2023-01-11T23:49:38.611Z,4.30
2023-01-11T23:52:06.559Z,4.77
2023-01-11T23:54:34.093Z,4.40
2023-01-11T23:57:02.768Z,5.10
2023-01-11T23:59:29.985Z,4.83
